Latest Weather Observations for Canberra

IDN60901

Issued at 11:11 am EST Sunday 26 April 2015 (issued every 10 minutes, with the page automatically refreshed every 10 minutes)

About weather observations | Map of Canberra area stations | Latest observations for Canberra area | Other Formats
Station Details ID: 070351 Name: CANBERRA AIRPORT Lat: -35.31 Lon: 149.20 Height: 577.05 m
Data from the previous 72 hours. | See also: Recent months at Canberra
Date/Time
EST
Tmp

°C
App
Tmp
°C
Dew
Point
°C
Rel
Hum
%
Delta-T

°C
Wind Press
QNH
hPa
Press
MSL
hPa
Rain
since
9 am
mm
Dir
 
Spd
km/h
Gust
km/h
Spd
kts
Gust
kts
26/11:00am 12.6 10.5 8.3 75 2.2 N 9 11 5 6 1012.1 - 0.0
26/10:30am 11.6 10.2 9.7 88 1.0 NW 7 15 4 8 1012.1 - 0.0
26/09:30am 9.6 7.6 8.7 94 0.5 W 9 11 5 6 1011.7 - 0.0
26/09:00am 8.7 7.8 7.6 93 0.5 E 2 6 1 3 1011.6 1010.9 2.0
26/08:30am 8.5 6.7 8.1 97 0.2 NE 7 9 4 5 1011.6 - 2.0
26/07:30am 6.7 4.8 6.6 99 0.0 ESE 6 9 3 5 1011.1 - 2.0
26/07:00am 6.6 5.8 6.5 99 0.0 CALM 0 0 0 0 1010.6 - 2.0
26/06:30am 6.9 6.2 6.8 99 0.0 CALM 0 0 0 0 1010.4 - 2.0
26/05:30am 6.8 6.0 6.7 99 0.0 CALM 0 0 0 0 1010.0 - 2.0
26/05:00am 6.5 4.3 6.4 99 0.0 NNW 7 9 4 5 1009.6 - 1.8
26/04:30am 6.3 5.4 6.2 99 0.0 CALM 0 0 0 0 1009.4 - 1.8
26/04:00am 5.7 4.7 5.6 99 0.0 CALM 0 4 0 2 1009.2 - 1.8
26/03:30am 4.5 2.1 4.4 99 0.0 NW 6 7 3 4 1009.1 - 1.8
26/03:00am 5.5 3.3 5.4 99 0.0 SE 6 7 3 4 1009.0 1008.2 1.8
26/02:30am 5.3 2.9 5.2 99 0.0 ESE 7 9 4 5 1009.1 - 1.8
26/02:00am 5.8 4.8 5.7 99 0.0 CALM 0 0 0 0 1009.0 - 1.8
26/01:30am 5.7 4.7 5.6 99 0.0 CALM 0 6 0 3 1009.2 - 1.8
26/01:00am 5.5 2.8 5.4 99 0.0 N 9 11 5 6 1009.3 - 1.8
26/12:32am 6.4 3.8 6.3 99 0.0 N 9 11 5 6 1009.2 - 1.8
26/12:30am 6.3 3.7 6.2 99 0.0 N 9 11 5 6 1009.2 - 1.8
26/12:11am 6.4 3.5 6.3 99 0.0 N 11 11 6 6 1009.1 - 1.8
26/12:00am 6.2 4.9 6.1 99 0.0 ESE 2 7 1 4 1009.0 1008.2 1.8
 
Date/Time
EST
Tmp

°C
App
Tmp
°C
Dew
Point
°C
Rel
Hum
%
Delta-T

°C
Wind Press
QNH
hPa
Press
MSL
hPa
Rain
since
9 am
mm
Dir
 
Spd
km/h
Gust
km/h
Spd
kts
Gust
kts
25/11:30pm 5.4 3.5 5.1 98 0.1 E 4 7 2 4 1009.0 - 1.8
25/11:14pm 6.8 3.9 6.7 99 0.0 N 11 11 6 6 1009.1 - 1.8
25/11:00pm 6.1 3.1 5.8 98 0.1 N 11 13 6 7 1009.2 - 1.8
25/10:53pm 5.4 3.1 5.0 97 0.2 E 6 11 3 6 1009.1 - 1.8
25/10:30pm 6.7 4.6 6.6 99 0.0 SSE 7 7 4 4 1009.2 - 1.8
25/10:00pm 6.1 4.7 5.4 95 0.3 SSE 2 7 1 4 1009.5 - 1.8
25/09:30pm 7.6 5.6 6.9 95 0.3 SE 7 7 4 4 1009.6 - 1.8
25/09:00pm 8.9 6.4 8.1 95 0.4 NE 11 13 6 7 1009.8 1009.1 1.8
25/08:30pm 8.8 7.0 7.9 94 0.4 NE 7 9 4 5 1009.7 - 1.8
25/08:00pm 9.3 7.2 8.2 93 0.5 S 9 13 5 7 1009.2 - 1.8
25/07:30pm 8.3 5.2 7.4 94 0.4 SE 13 17 7 9 1008.5 - 1.8
25/07:00pm 9.0 6.7 7.5 90 0.7 SSW 9 11 5 6 1008.4 - 1.8
25/06:30pm 10.0 9.1 7.8 86 1.1 NE 2 7 1 4 1008.4 - 1.8
25/05:30pm 11.1 8.6 8.3 83 1.4 NNE 11 15 6 8 1007.8 - 1.6
25/05:00pm 11.6 8.4 8.3 80 1.7 E 15 19 8 10 1007.4 - 1.6
25/04:30pm 11.5 10.7 8.2 80 1.7 WSW 2 9 1 5 1007.8 - 1.6
25/04:00pm 11.5 8.5 7.8 78 1.9 ESE 13 19 7 10 1007.0 - 1.6
25/03:30pm 10.9 8.3 7.6 80 1.6 S 11 15 6 8 1007.0 - 1.6
25/03:00pm 11.4 8.2 6.7 73 2.3 SSW 13 17 7 9 1007.9 1007.1 1.4
25/02:30pm 11.3 7.1 8.2 81 1.6 SSW 20 26 11 14 1008.0 - 1.4
25/02:00pm 11.3 7.1 7.4 77 1.9 E 19 22 10 12 1007.5 - 1.4
25/01:47pm 12.0 7.7 6.9 71 2.5 W 19 35 10 19 1008.2 - 0.6
25/01:40pm 12.0 5.5 6.7 70 2.6 WNW 30 37 16 20 1007.8 - 0.2
25/01:36pm 12.6 5.6 6.0 64 3.2 WNW 32 37 17 20 1007.7 - 0.0
25/01:30pm 13.0 4.6 5.7 61 3.5 NW 39 59 21 32 1007.4 - 0.0
25/01:28pm 13.1 5.3 6.7 65 3.2 NW 37 59 20 32 1007.5 - 0.0
25/01:21pm 14.5 7.8 7.3 62 3.7 NW 32 41 17 22 1007.4 - 0.0
25/01:09pm 15.5 13.2 9.0 65 3.4 NW 11 15 6 8 1007.0 - 0.0
25/01:00pm 16.0 14.4 8.7 62 3.8 NNW 7 11 4 6 1006.9 - 0.0
25/12:30pm 16.6 15.9 8.6 59 4.2 ENE 2 7 1 4 1007.1 - 0.0
25/12:00pm 16.7 15.1 8.7 59 4.2 NW 7 11 4 6 1007.6 1006.8 0.0
25/11:30am 16.2 15.1 8.4 60 4.1 W 4 7 2 4 1008.5 - 0.0
25/11:00am 15.0 13.6 9.4 69 3.0 S 7 11 4 6 1009.0 - 0.0
25/10:30am 14.2 12.3 9.0 71 2.7 W 9 13 5 7 1009.2 - 0.0
25/10:00am 13.4 12.5 9.1 75 2.2 E 4 7 2 4 1009.1 - 0.0
25/09:30am 11.4 11.2 9.0 85 1.2 CALM 0 0 0 0 1009.5 - 0.0
25/09:00am 10.6 8.9 8.5 87 1.1 SSE 7 9 4 5 1009.7 1008.9 0.0
25/08:30am 10.0 8.2 7.9 87 1.0 SSE 7 9 4 5 1009.7 - 0.0
25/08:00am 9.1 6.9 7.9 92 0.6 ESE 9 13 5 7 1009.5 - 0.0
25/07:30am 7.7 6.0 7.6 99 0.0 SE 6 7 3 4 1009.4 - 0.0
25/07:00am 5.2 3.3 5.1 99 0.0 SE 4 11 2 6 1009.2 - 0.0
25/06:59am 5.2 3.0 5.1 99 0.0 SE 6 11 3 6 1009.2 - 0.0
25/06:50am 5.2 2.0 5.1 99 0.0 SE 11 15 6 8 1009.0 - 0.0
25/06:30am 5.1 3.6 5.0 99 0.0 W 2 7 1 4 1009.1 - 0.0
25/06:00am 4.8 2.9 4.7 99 0.0 W 4 7 2 4 1009.0 1008.2 0.0
25/05:37am 4.6 2.2 4.5 99 0.0 SE 6 7 3 4 1008.6 - 0.0
25/05:30am 5.2 3.3 5.1 99 0.0 E 4 7 2 4 1008.5 - 0.0
25/05:12am 5.8 3.5 5.7 99 0.0 ESE 7 9 4 5 1008.4 - 0.0
25/05:03am 4.9 2.4 4.8 99 0.0 SE 7 9 4 5 1008.4 - 0.0
25/05:00am 5.4 3.2 5.3 99 0.0 SE 6 9 3 5 1008.4 - 0.0
25/04:41am 5.0 2.7 4.6 97 0.2 SSE 6 9 3 5 1008.5 - 0.0
25/04:30am 6.1 5.2 6.0 99 0.0 CALM 0 0 0 0 1008.5 - 0.0
25/04:00am 5.6 4.5 5.2 97 0.2 CALM 0 0 0 0 1008.2 - 0.0
25/03:30am 6.7 5.1 6.3 97 0.2 ESE 4 9 2 5 1008.2 - 0.0
25/03:00am 6.5 3.9 5.9 96 0.3 SSE 9 11 5 6 1008.0 1007.2 0.0
25/02:30am 8.2 6.7 7.0 92 0.6 SW 4 7 2 4 1008.2 - 0.0
25/02:00am 8.4 7.8 7.6 95 0.4 CALM 0 4 0 2 1008.3 - 0.0
25/01:30am 8.6 6.8 7.8 95 0.4 NE 7 9 4 5 1008.4 - 0.0
25/01:00am 9.4 7.9 8.5 94 0.5 ENE 6 7 3 4 1008.5 - 0.0
25/12:30am 10.0 7.9 8.1 88 0.9 N 9 13 5 7 1008.7 - 0.0
25/12:00am 10.6 7.8 8.7 88 1.0 N 13 15 7 8 1008.7 1007.9 0.0
 
Date/Time
EST
Tmp

°C
App
Tmp
°C
Dew
Point
°C
Rel
Hum
%
Delta-T

°C
Wind Press
QNH
hPa
Press
MSL
hPa
Rain
since
9 am
mm
Dir
 
Spd
km/h
Gust
km/h
Spd
kts
Gust
kts
24/11:30pm 10.6 8.6 8.5 87 1.1 NNE 9 11 5 6 1008.8 - 0.0
24/11:00pm 11.1 9.2 9.2 88 1.0 NNE 9 11 5 6 1008.7 - 0.0
24/10:30pm 11.3 9.5 9.4 88 1.0 NNE 9 11 5 6 1008.5 - 0.0
24/10:00pm 11.2 8.6 9.5 89 0.9 NW 13 19 7 10 1008.6 - 0.0
24/09:30pm 11.7 8.8 9.6 87 1.1 NW 15 19 8 10 1008.4 - 0.0
24/09:00pm 12.3 9.4 9.5 83 1.5 NNW 15 19 8 10 1008.3 1007.4 0.0
24/08:30pm 12.4 10.2 9.4 82 1.6 NNW 11 13 6 7 1008.2 - 0.0
24/08:00pm 12.9 10.3 9.4 79 1.8 NNW 13 17 7 9 1007.9 - 0.0
24/07:30pm 14.6 12.3 10.4 76 2.3 NW 13 15 7 8 1007.9 - 0.0
24/07:00pm 14.8 12.4 10.2 74 2.5 NNW 13 17 7 9 1008.0 - 0.0
24/06:30pm 15.0 12.3 10.4 74 2.5 NW 15 17 8 9 1007.6 - 0.0
24/06:00pm 15.0 12.7 10.4 74 2.5 NW 13 17 7 9 1007.4 1006.6 0.0
24/05:30pm 15.2 12.1 10.2 72 2.7 NW 17 24 9 13 1007.1 - 0.0
24/05:00pm 15.5 12.8 10.3 71 2.8 NW 15 20 8 11 1007.1 - 0.0
24/04:30pm 15.8 13.5 10.3 70 3.0 NW 13 19 7 10 1007.1 - 0.0
24/04:00pm 16.1 12.4 10.2 68 3.2 WNW 20 28 11 15 1006.9 - 0.0
24/03:30pm 16.2 12.7 10.1 67 3.3 WNW 19 24 10 13 1006.8 - 0.0
24/03:00pm 16.4 12.0 10.5 68 3.2 NW 24 33 13 18 1006.9 1006.1 0.0
24/02:30pm 16.3 12.4 10.8 70 3.0 WNW 22 30 12 16 1006.8 - 0.0
24/02:00pm 16.2 11.6 11.2 72 2.8 NW 26 33 14 18 1006.7 - 0.0
24/01:30pm 16.8 12.7 11.3 70 3.1 WNW 24 32 13 17 1006.6 - 0.0
24/01:00pm 17.6 14.0 12.9 74 2.7 NW 24 32 13 17 1006.7 - 0.0
24/12:30pm 17.8 12.5 12.5 71 3.0 NW 32 43 17 23 1007.0 - 0.0
24/12:00pm 17.2 13.4 12.5 74 2.7 NW 24 37 13 20 1007.2 1006.4 0.0
24/11:30am 16.9 13.1 12.4 75 2.6 NW 24 32 13 17 1007.5 - 0.0
24/11:00am 16.5 13.5 12.7 78 2.2 NW 20 26 11 14 1007.9 - 0.0
24/10:30am 16.4 13.6 13.3 82 1.8 NNW 20 26 11 14 1008.2 - 0.0
24/10:00am 16.1 14.3 13.2 83 1.7 NNW 15 19 8 10 1008.2 - 0.0
24/09:30am 15.7 13.3 12.8 83 1.6 N 17 22 9 12 1008.2 - 0.0
24/09:00am 15.3 13.2 13.5 89 1.0 N 17 20 9 11 1008.5 1007.7 0.4
24/08:30am 14.7 13.7 13.4 92 0.7 N 11 17 6 9 1008.7 - 0.4
24/08:00am 14.0 12.8 12.9 93 0.6 N 11 15 6 8 1008.7 - 0.4
24/07:30am 13.8 13.0 12.9 94 0.5 N 9 11 5 6 1008.7 - 0.4
24/07:07am 13.1 12.3 12.8 98 0.2 N 9 11 5 6 1008.6 - 0.4
24/07:00am 12.8 12.2 12.3 97 0.3 NNE 7 11 4 6 1008.4 - 0.4
24/06:30am 12.8 11.5 12.6 99 0.1 N 11 13 6 7 1008.4 - 0.4
24/06:00am 12.6 13.0 12.4 99 0.1 NE 2 7 1 4 1008.2 1007.3 0.4
24/05:30am 12.5 11.5 12.3 99 0.1 NE 9 13 5 7 1008.2 - 0.4
24/05:00am 12.7 12.7 12.5 99 0.1 N 4 9 2 5 1008.4 - 0.4
24/04:30am 12.9 13.4 12.7 99 0.1 N 2 7 1 4 1008.3 - 0.4
24/04:00am 13.2 12.8 13.0 99 0.1 E 7 7 4 4 1008.5 - 0.4
24/03:48am 13.1 12.7 12.9 99 0.1 ESE 7 9 4 5 1008.6 - 0.4
24/03:30am 13.5 12.8 13.3 99 0.1 N 9 11 5 6 1008.9 - 0.4
24/03:00am 13.3 13.1 13.1 99 0.1 N 6 7 3 4 1009.1 1008.3 0.4
24/02:30am 13.5 14.5 13.3 99 0.1 CALM 0 0 0 0 1009.4 - 0.4
24/02:00am 13.8 13.6 13.6 99 0.1 N 7 9 4 5 1009.8 - 0.4
24/01:30am 13.8 13.2 13.6 99 0.1 NNE 9 11 5 6 1009.7 - 0.4
24/01:00am 13.9 15.0 13.6 98 0.2 CALM 0 0 0 0 1010.3 - 0.4
24/12:30am 13.9 15.0 13.4 97 0.3 CALM 0 0 0 0 1010.6 - 0.4
24/12:00am 14.0 15.1 13.5 97 0.3 CALM 0 0 0 0 1010.9 1010.1 0.4
 
Date/Time
EST
Tmp

°C
App
Tmp
°C
Dew
Point
°C
Rel
Hum
%
Delta-T

°C
Wind Press
QNH
hPa
Press
MSL
hPa
Rain
since
9 am
mm
Dir
 
Spd
km/h
Gust
km/h
Spd
kts
Gust
kts
23/11:30pm 14.2 14.2 13.7 97 0.3 WSW 6 7 3 4 1011.1 - 0.4
23/11:00pm 14.2 13.6 13.6 96 0.3 W 9 9 5 5 1011.3 - 0.4
23/10:30pm 14.3 14.3 13.7 96 0.3 WSW 6 7 3 4 1011.6 - 0.4
23/10:15pm 14.4 14.4 13.6 95 0.5 W 6 7 3 4 1011.9 - 0.4
23/10:00pm 14.5 14.5 13.7 95 0.5 WSW 6 7 3 4 1012.1 - 0.4
23/09:45pm 14.7 14.7 14.1 96 0.3 W 7 9 4 5 1012.2 - 0.4
23/09:30pm 14.5 14.0 13.9 96 0.3 W 9 9 5 5 1012.3 - 0.4
23/09:09pm 14.7 15.8 13.6 93 0.6 CALM 0 0 0 0 1012.4 - 0.4
23/09:00pm 14.8 15.1 13.5 92 0.7 N 4 7 2 4 1012.4 1011.6 0.4
23/08:30pm 15.1 15.9 13.8 92 0.8 NW 2 7 1 4 1012.5 - 0.4
23/08:04pm 15.1 15.0 13.8 92 0.8 NW 7 9 4 5 1012.5 - 0.4
23/08:00pm 15.1 14.6 13.8 92 0.8 NW 9 9 5 5 1012.5 - 0.4
23/07:30pm 15.3 14.8 13.8 91 0.9 NW 9 13 5 7 1012.4 - 0.4
23/07:00pm 15.6 15.5 13.3 86 1.3 WSW 6 9 3 5 1012.4 - 0.4
23/06:30pm 15.4 16.6 13.8 90 0.9 CALM 0 0 0 0 1012.1 - 0.4
23/06:00pm 15.4 14.5 13.8 90 0.9 ESE 11 13 6 7 1011.6 1010.9 0.4
23/05:30pm 16.7 15.3 12.3 75 2.5 SE 11 17 6 9 1011.2 - 0.2
23/05:00pm 17.9 16.0 11.7 67 3.5 SSE 13 19 7 10 1010.9 - 0.2
23/04:30pm 18.0 17.3 13.3 74 2.7 E 9 11 5 6 1010.9 - 0.2
23/04:00pm 19.5 17.8 13.7 69 3.4 ENE 15 19 8 10 1010.7 - 0.2
23/03:30pm 19.3 17.5 13.2 68 3.6 NNE 15 20 8 11 1010.8 - 0.2
23/03:00pm 19.6 18.9 13.3 67 3.7 ESE 9 13 5 7 1010.7 1009.9 0.2
23/02:30pm 22.8 22.4 12.4 52 6.1 WSW 6 11 3 6 1010.7 - 0.0
23/02:00pm 20.7 18.6 11.3 55 5.3 SE 13 17 7 9 1010.9 - 0.0
23/01:30pm 21.2 19.7 11.8 55 5.4 S 11 17 6 9 1011.0 - 0.0
23/01:00pm 22.1 20.7 12.1 53 5.8 ENE 11 15 6 8 1011.4 - 0.0
23/12:30pm 21.8 20.5 12.6 56 5.4 ENE 11 17 6 9 1012.0 - 0.0
23/12:00pm 20.1 19.0 12.1 60 4.6 SE 9 17 5 9 1012.8 1012.1 0.0
23/11:30am 20.5 19.5 12.2 59 4.8 E 9 17 5 9 1013.1 - 0.0

Latest Capital City Observations: Canberra | Sydney | Melbourne | Brisbane | Adelaide | Perth | Hobart | Darwin

Other Formats:

Comma delimited format used in spreadsheet applications
http://www.bom.gov.au/fwo/IDN60903/IDN60903.94926.axf

JavaScript Object Notation format (JSON) in row-major order
http://www.bom.gov.au/fwo/IDN60903/IDN60903.94926.json